Time;durP1;ratioP1;P1;durP2;ratioP2;P2;SDS_P1;SDS_P2;PMS_P1;PMS_P2;Temp;Humidity;BMP_temperature;BMP_pressure;BME280_temperature;BME280_humidity;BME280_pressure;Samples;Min_cycle;Max_cycle;Signal;HPM_P1;HPM_P2
2022/06/18 00:01:44;;;;;;;6.35;4.28;;;21.30;99.90;;;;;;5070864;28;20045;-74
2022/06/18 00:04:16;;;;;;;8.38;4.53;;;21.30;99.90;;;;;;5053868;28;20144;-73
2022/06/18 00:06:51;;;;;;;6.97;3.97;;;21.20;99.90;;;;;;5037632;28;20052;-73
2022/06/18 00:09:20;;;;;;;7.28;4.15;;;21.20;99.90;;;;;;5054606;28;20044;-73
2022/06/18 00:14:32;;;;;;;5.70;3.43;;;21.40;99.90;;;;;;5071347;28;20515;-73
2022/06/18 00:16:58;;;;;;;9.60;5.20;;;21.40;99.90;;;;;;5054367;28;20087;-74
2022/06/18 00:19:23;;;;;;;10.90;4.28;;;21.40;99.90;;;;;;5054640;28;20041;-75
2022/06/18 00:21:50;;;;;;;6.97;4.03;;;21.40;99.90;;;;;;5054982;28;20053;-74
2022/06/18 00:24:19;;;;;;;6.57;3.75;;;21.40;99.90;;;;;;5054015;28;20060;-73
2022/06/18 00:26:45;;;;;;;6.70;4.07;;;21.40;99.90;;;;;;5054133;28;20076;-73
2022/06/18 00:29:14;;;;;;;7.80;4.20;;;21.40;99.90;;;;;;5054367;28;20049;-73
2022/06/18 00:31:41;;;;;;;6.63;3.75;;;21.40;99.90;;;;;;5053795;28;20559;-73
2022/06/18 00:34:07;;;;;;;7.95;3.88;;;21.40;99.90;;;;;;5054100;28;20056;-73
2022/06/18 00:36:35;;;;;;;8.55;4.10;;;21.30;99.90;;;;;;5070795;28;20060;-73
2022/06/18 00:39:00;;;;;;;4.88;4.00;;;21.20;99.90;;;;;;5054246;28;20483;-73
2022/06/18 00:41:26;;;;;;;8.15;4.20;;;21.30;99.90;;;;;;5071033;28;20053;-73
2022/06/18 00:43:58;;;;;;;8.65;4.35;;;21.40;99.90;;;;;;5053972;28;20051;-74
2022/06/18 00:46:57;;;;;;;7.78;4.85;;;21.40;99.90;;;;;;5037277;28;20124;-73
2022/06/18 00:49:55;;;;;;;8.45;4.75;;;21.40;99.90;;;;;;5070761;28;20064;-73
2022/06/18 00:52:38;;;;;;;8.25;4.60;;;21.40;99.90;;;;;;5053637;28;20111;-74
2022/06/18 00:55:36;;;;;;;9.25;5.03;;;21.40;99.90;;;;;;5054281;28;20048;-73
2022/06/18 00:58:05;;;;;;;7.55;5.30;;;21.50;99.90;;;;;;5070664;28;20059;-73
2022/06/18 01:00:43;;;;;;;9.88;4.70;;;21.40;99.90;;;;;;5053601;28;20048;-73
2022/06/18 01:03:28;;;;;;;8.75;4.97;;;21.30;99.90;;;;;;5069995;28;20053;-73
2022/06/18 01:05:56;;;;;;;6.95;3.88;;;21.30;99.90;;;;;;5053052;28;20076;-73
2022/06/18 01:08:26;;;;;;;7.47;4.88;;;21.30;99.90;;;;;;5052921;28;20059;-73
2022/06/18 01:11:03;;;;;;;6.05;3.70;;;21.40;99.90;;;;;;5052844;28;20048;-73
2022/06/18 01:13:35;;;;;;;6.28;4.30;;;21.40;99.90;;;;;;5053574;28;20053;-73
2022/06/18 01:16:03;;;;;;;7.70;5.00;;;21.50;99.90;;;;;;5053311;28;20056;-74
2022/06/18 01:18:29;;;;;;;8.25;4.70;;;21.50;99.90;;;;;;5053022;28;20088;-74
2022/06/18 01:21:20;;;;;;;5.57;4.53;;;21.40;99.90;;;;;;5054443;28;20040;-74
2022/06/18 01:23:49;;;;;;;6.95;4.90;;;21.30;99.90;;;;;;5053101;28;20163;-74
2022/06/18 01:26:15;;;;;;;8.63;5.00;;;21.30;99.90;;;;;;5053152;28;20091;-74
2022/06/18 01:28:41;;;;;;;8.05;5.15;;;21.30;99.90;;;;;;5052804;28;20084;-73
2022/06/18 01:31:07;;;;;;;7.40;4.88;;;21.30;99.90;;;;;;5053480;28;20487;-73
2022/06/18 01:33:33;;;;;;;9.05;4.93;;;21.30;99.90;;;;;;5052861;28;20395;-74
2022/06/18 01:36:04;;;;;;;6.47;4.90;;;21.20;99.90;;;;;;5069777;28;20052;-74
2022/06/18 01:38:29;;;;;;;6.35;4.85;;;21.10;99.90;;;;;;5069437;28;20040;-74
2022/06/18 01:43:54;;;;;;;8.98;4.57;;;21.10;99.90;;;;;;5070080;28;20411;-73
2022/06/18 01:46:20;;;;;;;7.15;4.90;;;21.10;99.90;;;;;;5069417;28;20072;-73
2022/06/18 01:48:48;;;;;;;6.40;4.55;;;21.10;99.90;;;;;;5052872;28;20041;-74
2022/06/18 01:51:23;;;;;;;6.72;4.40;;;21.10;99.90;;;;;;5052859;28;20083;-74
2022/06/18 01:53:58;;;;;;;6.97;4.63;;;21.10;99.90;;;;;;5052315;28;20049;-73
2022/06/18 01:56:34;;;;;;;7.60;4.75;;;21.10;99.90;;;;;;5052825;28;20049;-73
2022/06/18 01:59:34;;;;;;;7.30;4.30;;;21.10;99.90;;;;;;5036037;28;20086;-75
2022/06/18 02:02:03;;;;;;;8.48;5.10;;;21.10;99.90;;;;;;5050537;28;20550;-73
2022/06/18 02:04:30;;;;;;;6.18;4.55;;;21.10;99.90;;;;;;5052299;28;20056;-74
2022/06/18 02:06:56;;;;;;;8.23;4.60;;;21.00;99.90;;;;;;5052365;28;20087;-74
2022/06/18 02:09:33;;;;;;;8.48;4.63;;;21.00;99.90;;;;;;5053348;28;20072;-74
2022/06/18 02:12:02;;;;;;;6.93;4.80;;;21.00;99.90;;;;;;5052528;28;20496;-74
2022/06/18 02:14:30;;;;;;;7.03;5.30;;;20.90;99.90;;;;;;5069397;28;20049;-74
2022/06/18 02:16:57;;;;;;;8.48;5.53;;;20.80;99.90;;;;;;5053507;28;20059;-74
2022/06/18 02:19:23;;;;;;;6.95;5.30;;;20.70;99.90;;;;;;5052471;28;20123;-74
2022/06/18 02:21:54;;;;;;;8.32;5.68;;;20.70;99.90;;;;;;5052472;28;20135;-73
2022/06/18 02:24:20;;;;;;;6.90;5.40;;;20.60;99.90;;;;;;5052861;28;20048;-73
2022/06/18 02:26:47;;;;;;;9.32;5.63;;;20.70;99.90;;;;;;5052250;28;20090;-74
2022/06/18 02:29:21;;;;;;;9.48;6.32;;;20.60;99.90;;;;;;5073435;28;20061;-74
2022/06/18 02:31:46;;;;;;;6.97;5.63;;;20.60;99.90;;;;;;5059142;28;20064;-73
2022/06/18 02:34:17;;;;;;;9.35;6.05;;;20.60;99.90;;;;;;5059004;28;20044;-73
2022/06/18 02:36:43;;;;;;;8.98;6.50;;;20.50;99.90;;;;;;5058923;28;20041;-73
2022/06/18 02:39:33;;;;;;;10.35;6.55;;;20.50;99.90;;;;;;5058567;28;20126;-74
2022/06/18 02:42:11;;;;;;;10.93;6.13;;;20.60;99.90;;;;;;5058618;28;20047;-74
2022/06/18 02:44:39;;;;;;;10.57;7.05;;;20.50;99.90;;;;;;5058709;28;20049;-73
2022/06/18 02:47:06;;;;;;;13.23;7.57;;;20.40;99.90;;;;;;5075025;28;20098;-74
2022/06/18 02:49:41;;;;;;;10.20;7.53;;;20.40;99.90;;;;;;5058708;28;20072;-74
2022/06/18 02:52:07;;;;;;;14.13;8.30;;;20.30;99.90;;;;;;5075944;28;20052;-74
2022/06/18 02:54:33;;;;;;;11.23;6.63;;;20.20;99.90;;;;;;5058756;28;20102;-73
2022/06/18 02:57:02;;;;;;;10.30;7.32;;;20.30;99.90;;;;;;5059592;28;20037;-73
2022/06/18 02:59:29;;;;;;;11.73;8.45;;;20.20;99.90;;;;;;5058794;28;20051;-74
2022/06/18 03:01:54;;;;;;;10.43;7.45;;;20.20;99.90;;;;;;5058544;28;20090;-74
2022/06/18 03:04:20;;;;;;;10.23;7.00;;;20.20;99.90;;;;;;5058654;28;20041;-73
2022/06/18 03:06:46;;;;;;;13.50;7.68;;;20.10;99.90;;;;;;5058628;28;20090;-73
2022/06/18 03:09:11;;;;;;;10.73;7.80;;;20.10;99.90;;;;;;5058632;28;20048;-73
2022/06/18 03:14:21;;;;;;;14.50;9.27;;;20.10;99.90;;;;;;5075246;28;20219;-74
2022/06/18 03:16:47;;;;;;;11.32;7.90;;;20.00;99.90;;;;;;5058868;28;20525;-74
2022/06/18 03:19:38;;;;;;;13.82;8.77;;;20.00;99.90;;;;;;5058572;28;20041;-74
2022/06/18 03:22:10;;;;;;;16.77;9.25;;;20.10;99.90;;;;;;5058568;28;20129;-73
2022/06/18 03:24:36;;;;;;;14.65;8.75;;;20.10;99.90;;;;;;5058033;28;20057;-73
2022/06/18 03:27:02;;;;;;;17.38;10.02;;;20.10;99.90;;;;;;5059297;28;20106;-73
2022/06/18 03:29:28;;;;;;;15.27;10.45;;;20.10;99.90;;;;;;5058402;28;20136;-74
2022/06/18 03:31:54;;;;;;;16.67;10.95;;;20.10;99.90;;;;;;5058217;28;20132;-73
2022/06/18 03:34:20;;;;;;;14.27;9.15;;;20.10;99.90;;;;;;5058410;28;20373;-74
2022/06/18 03:36:45;;;;;;;18.75;12.27;;;20.10;99.90;;;;;;5058579;28;20049;-73
2022/06/18 03:39:12;;;;;;;19.45;13.98;;;20.10;99.90;;;;;;5057734;28;20477;-74
2022/06/18 03:41:38;;;;;;;24.85;15.07;;;20.10;99.90;;;;;;5038581;28;20127;-73
2022/06/18 03:44:03;;;;;;;22.95;15.18;;;20.00;99.90;;;;;;5054375;28;20243;-74
2022/06/18 03:46:29;;;;;;;24.27;14.80;;;20.00;99.90;;;;;;5037781;28;20162;-73
2022/06/18 03:48:58;;;;;;;21.08;15.48;;;20.10;99.90;;;;;;5054425;28;20070;-73
2022/06/18 03:51:25;;;;;;;22.70;15.23;;;19.90;99.90;;;;;;5054718;28;20040;-73
2022/06/18 03:53:51;;;;;;;29.17;17.23;;;19.80;99.90;;;;;;5055625;28;20134;-74
2022/06/18 03:56:20;;;;;;;27.33;16.48;;;19.90;99.90;;;;;;5055938;28;20477;-73
2022/06/18 03:58:48;;;;;;;32.83;18.70;;;19.90;99.90;;;;;;5055081;28;20044;-73
2022/06/18 04:01:17;;;;;;;23.83;16.73;;;19.80;99.90;;;;;;5054538;28;20056;-73
2022/06/18 04:03:43;;;;;;;35.83;19.17;;;19.60;99.90;;;;;;5054834;28;20119;-73
2022/06/18 04:06:15;;;;;;;27.25;19.35;;;19.60;99.90;;;;;;5054548;28;20540;-73
2022/06/18 04:08:41;;;;;;;35.80;20.15;;;19.60;99.90;;;;;;5055233;28;20377;-73
2022/06/18 04:11:12;;;;;;;41.40;20.13;;;19.70;99.90;;;;;;5054711;28;20057;-73
2022/06/18 04:13:37;;;;;;;38.60;21.33;;;19.70;99.90;;;;;;5054033;28;20083;-74
2022/06/18 04:16:04;;;;;;;35.15;21.38;;;19.80;99.90;;;;;;5053848;28;20554;-73
2022/06/18 04:18:30;;;;;;;39.65;21.02;;;19.70;99.90;;;;;;5055492;28;20049;-73
2022/06/18 04:20:56;;;;;;;27.65;18.27;;;19.80;99.90;;;;;;5054574;28;20365;-74
2022/06/18 04:23:22;;;;;;;27.23;18.52;;;19.80;99.90;;;;;;5054478;28;20115;-74
2022/06/18 04:25:48;;;;;;;31.98;18.98;;;19.90;99.90;;;;;;5054150;28;20464;-73
2022/06/18 04:28:15;;;;;;;36.28;19.75;;;20.10;99.90;;;;;;5053842;28;20140;-73
2022/06/18 04:30:41;;;;;;;34.40;19.95;;;20.20;99.90;;;;;;5054836;28;20053;-73
2022/06/18 04:33:07;;;;;;;37.10;21.35;;;20.20;99.90;;;;;;5055122;28;20049;-74
2022/06/18 04:35:33;;;;;;;37.00;20.70;;;20.20;99.90;;;;;;5054111;28;20090;-73
2022/06/18 04:38:01;;;;;;;32.08;21.70;;;20.00;99.90;;;;;;5054239;28;20080;-73
2022/06/18 04:40:32;;;;;;;36.60;23.48;;;19.80;99.90;;;;;;5054194;28;20057;-75
2022/06/18 04:43:03;;;;;;;34.28;22.48;;;19.80;99.90;;;;;;5054302;28;20053;-73
2022/06/18 04:45:29;;;;;;;37.63;22.23;;;19.70;99.90;;;;;;5057965;28;20090;-74
2022/06/18 04:47:56;;;;;;;39.83;23.73;;;19.80;99.90;;;;;;5071842;28;20101;-73
2022/06/18 04:50:25;;;;;;;37.25;21.48;;;20.00;99.90;;;;;;5073779;28;20053;-73
2022/06/18 04:52:51;;;;;;;37.60;22.60;;;20.00;99.90;;;;;;5072906;28;20136;-73
2022/06/18 04:55:17;;;;;;;41.15;25.08;;;20.10;99.90;;;;;;5073404;28;20087;-73
2022/06/18 04:57:43;;;;;;;44.20;24.40;;;20.20;99.90;;;;;;5091177;28;20083;-73
2022/06/18 05:00:10;;;;;;;38.25;21.25;;;20.10;99.90;;;;;;5073524;28;20478;-73
2022/06/18 05:02:36;;;;;;;43.83;24.95;;;20.00;99.90;;;;;;5073462;28;20132;-74
2022/06/18 05:05:10;;;;;;;40.53;23.83;;;20.00;99.90;;;;;;5073010;28;20078;-74
2022/06/18 05:07:37;;;;;;;42.05;23.35;;;20.10;99.90;;;;;;5056668;28;20045;-73
2022/06/18 05:10:03;;;;;;;39.08;22.88;;;20.20;99.90;;;;;;5074050;28;20041;-73
2022/06/18 05:12:29;;;;;;;42.95;24.90;;;20.10;99.90;;;;;;5073469;28;20051;-73
2022/06/18 05:14:54;;;;;;;41.83;24.42;;;20.20;99.90;;;;;;5073604;28;20040;-74
2022/06/18 05:17:28;;;;;;;40.35;22.23;;;20.00;99.90;;;;;;5073165;28;20084;-74
2022/06/18 05:19:54;;;;;;;36.05;21.60;;;20.10;99.90;;;;;;5073750;28;20527;-74
2022/06/18 05:22:20;;;;;;;35.85;22.33;;;20.10;99.90;;;;;;5073457;28;20114;-73
2022/06/18 05:24:46;;;;;;;42.42;22.85;;;20.20;99.90;;;;;;5072852;28;20048;-73
2022/06/18 05:27:21;;;;;;;39.38;23.05;;;20.20;99.90;;;;;;5072733;28;20040;-73
2022/06/18 05:29:46;;;;;;;41.13;23.52;;;20.30;99.90;;;;;;5073791;28;20057;-74
2022/06/18 05:32:12;;;;;;;39.05;22.88;;;20.20;99.90;;;;;;5074176;28;20101;-74
2022/06/18 05:34:38;;;;;;;42.72;21.42;;;20.20;99.90;;;;;;5073076;28;20430;-74
2022/06/18 05:37:11;;;;;;;41.22;22.48;;;20.40;99.90;;;;;;5073195;28;20057;-74
2022/06/18 05:39:36;;;;;;;36.00;21.45;;;20.50;99.90;;;;;;5072990;28;20062;-73
2022/06/18 05:42:02;;;;;;;39.25;21.63;;;20.60;99.90;;;;;;5073048;28;20049;-73
2022/06/18 05:44:28;;;;;;;40.45;19.95;;;20.70;99.90;;;;;;5072848;28;20044;-73
2022/06/18 05:46:54;;;;;;;31.08;20.63;;;20.80;99.90;;;;;;5072504;28;20062;-73
2022/06/18 05:49:19;;;;;;;36.38;20.17;;;20.90;99.90;;;;;;5072229;28;20411;-73
2022/06/18 05:51:45;;;;;;;32.90;18.85;;;21.00;99.90;;;;;;5073267;28;20053;-73
2022/06/18 05:54:10;;;;;;;30.02;17.02;;;21.00;99.90;;;;;;5055892;28;20115;-73
2022/06/18 05:56:36;;;;;;;28.90;15.27;;;21.00;99.90;;;;;;5073869;28;20040;-73
2022/06/18 05:59:02;;;;;;;30.88;16.60;;;21.00;99.90;;;;;;5072535;28;20479;-73
2022/06/18 06:01:28;;;;;;;29.58;15.25;;;21.00;99.90;;;;;;5089812;28;20045;-73
2022/06/18 06:03:53;;;;;;;24.02;12.82;;;21.20;99.90;;;;;;5073444;28;20056;-73
2022/06/18 06:06:19;;;;;;;23.33;13.93;;;21.40;99.90;;;;;;5072484;28;20127;-73
2022/06/18 06:08:45;;;;;;;24.40;14.70;;;21.50;99.90;;;;;;5055585;28;20048;-73
2022/06/18 06:11:28;;;;;;;25.55;13.82;;;21.70;99.90;;;;;;5071551;28;20045;-74
2022/06/18 06:13:54;;;;;;;26.10;12.10;;;21.70;99.90;;;;;;5042192;28;20456;-73
2022/06/18 06:16:20;;;;;;;25.88;12.43;;;21.80;99.90;;;;;;5073356;28;20043;-74
2022/06/18 06:18:47;;;;;;;21.90;11.52;;;21.90;99.90;;;;;;5071662;28;20127;-73
2022/06/18 06:21:12;;;;;;;23.92;11.88;;;22.10;99.90;;;;;;5070977;28;20060;-73
2022/06/18 06:23:39;;;;;;;26.80;11.48;;;22.00;99.90;;;;;;5071552;28;20067;-79
2022/06/18 06:26:17;;;;;;;23.58;11.02;;;22.20;99.90;;;;;;5072341;28;20040;-74
2022/06/18 06:28:43;;;;;;;24.38;10.38;;;22.30;99.90;;;;;;5071222;28;20103;-73
2022/06/18 06:31:09;;;;;;;19.88;10.48;;;22.60;99.90;;;;;;5073544;28;20088;-73
2022/06/18 06:33:35;;;;;;;15.20;9.50;;;22.60;99.90;;;;;;5072236;28;20041;-74
2022/06/18 06:36:01;;;;;;;18.63;8.52;;;22.80;99.90;;;;;;5071848;28;20093;-74
2022/06/18 06:38:26;;;;;;;15.50;8.48;;;22.80;99.90;;;;;;5071254;28;20072;-74
2022/06/18 06:40:54;;;;;;;18.83;8.15;;;22.80;99.90;;;;;;5071770;28;20052;-73
2022/06/18 06:43:20;;;;;;;16.67;7.72;;;23.00;99.90;;;;;;5072253;28;20044;-74
2022/06/18 06:45:46;;;;;;;22.20;7.90;;;22.80;99.90;;;;;;5071772;28;20419;-73
2022/06/18 06:48:12;;;;;;;25.20;8.60;;;22.90;99.90;;;;;;5072553;28;20474;-73
2022/06/18 06:50:39;;;;;;;18.48;8.15;;;23.00;99.90;;;;;;5054923;28;20044;-73
2022/06/18 06:53:04;;;;;;;20.33;8.82;;;23.00;99.90;;;;;;5072003;28;20048;-74
2022/06/18 06:58:18;;;;;;;12.55;7.22;;;22.80;99.90;;;;;;5072590;28;20068;-74
2022/06/18 07:00:50;;;;;;;15.45;6.13;;;22.90;99.90;;;;;;5072236;28;20052;-73
2022/06/18 07:03:25;;;;;;;15.55;5.97;;;22.80;99.90;;;;;;5070949;28;20567;-73
2022/06/18 07:05:51;;;;;;;13.65;5.47;;;23.00;99.90;;;;;;5071886;28;20492;-73
2022/06/18 07:08:17;;;;;;;17.98;6.13;;;23.10;99.90;;;;;;5053939;28;20052;-73
2022/06/18 07:10:44;;;;;;;15.02;6.40;;;23.20;99.90;;;;;;5070894;28;20048;-73
2022/06/18 07:13:10;;;;;;;13.52;6.20;;;23.10;99.90;;;;;;5072615;28;20045;-73
2022/06/18 07:15:37;;;;;;;14.25;6.82;;;23.20;99.90;;;;;;5074730;28;20132;-73
2022/06/18 07:18:04;;;;;;;15.43;7.50;;;23.20;99.90;;;;;;5042449;28;20052;-73
2022/06/18 07:20:29;;;;;;;19.35;7.20;;;23.20;99.90;;;;;;5075741;28;20124;-73
2022/06/18 07:22:58;;;;;;;14.90;6.72;;;23.30;99.90;;;;;;5075672;28;20465;-73
2022/06/18 07:25:24;;;;;;;17.70;6.72;;;23.30;99.90;;;;;;5075083;28;20123;-73
2022/06/18 07:27:52;;;;;;;14.52;6.28;;;23.30;99.90;;;;;;5075447;28;20060;-73
2022/06/18 07:30:19;;;;;;;19.10;7.97;;;23.40;99.90;;;;;;5075425;28;20056;-73
2022/06/18 07:32:48;;;;;;;20.08;8.63;;;23.30;99.90;;;;;;5074405;28;20053;-74
2022/06/18 07:35:21;;;;;;;18.20;6.63;;;23.30;99.90;;;;;;5073918;28;20083;-73
2022/06/18 07:37:47;;;;;;;14.55;6.45;;;23.40;99.90;;;;;;5075671;28;20059;-73
2022/06/18 07:40:13;;;;;;;16.65;6.88;;;23.60;99.90;;;;;;5075128;28;20036;-73
2022/06/18 07:42:39;;;;;;;17.23;7.30;;;23.70;99.90;;;;;;5076493;28;20092;-73
2022/06/18 07:45:21;;;;;;;13.52;5.47;;;23.80;99.90;;;;;;5075266;28;20395;-70
2022/06/18 07:47:48;;;;;;;13.82;5.55;;;23.90;99.90;;;;;;5076138;28;20055;-71
2022/06/18 07:50:15;;;;;;;16.33;5.63;;;24.00;99.90;;;;;;5076517;28;20045;-71
2022/06/18 07:52:41;;;;;;;11.13;4.97;;;23.90;99.90;;;;;;5074677;28;20045;-72
2022/06/18 07:55:13;;;;;;;14.90;5.53;;;23.90;99.90;;;;;;5073744;28;20498;-71
2022/06/18 07:57:39;;;;;;;11.98;4.90;;;23.90;99.90;;;;;;5075775;28;20036;-70
2022/06/18 08:00:07;;;;;;;16.30;5.30;;;23.90;99.90;;;;;;5075692;28;20493;-69
2022/06/18 08:02:37;;;;;;;10.40;5.22;;;23.80;99.90;;;;;;5079187;28;20080;-71
2022/06/18 08:05:03;;;;;;;11.07;4.20;;;23.60;99.90;;;;;;5075405;28;20066;-71
2022/06/18 08:07:28;;;;;;;6.85;3.75;;;23.50;99.90;;;;;;5075425;28;20044;-70
2022/06/18 08:09:54;;;;;;;10.32;3.33;;;23.40;99.90;;;;;;5075437;28;20049;-70
2022/06/18 08:12:20;;;;;;;11.52;3.80;;;23.50;99.90;;;;;;5075708;28;20495;-71
2022/06/18 08:14:45;;;;;;;9.30;3.20;;;23.70;99.90;;;;;;5075326;28;20047;-71
2022/06/18 08:17:11;;;;;;;9.88;3.72;;;23.80;99.90;;;;;;5074480;28;20068;-71
2022/06/18 08:19:38;;;;;;;8.88;3.83;;;23.90;99.90;;;;;;5074546;28;20063;-71
2022/06/18 08:22:04;;;;;;;12.52;3.22;;;24.10;99.90;;;;;;5074231;28;20048;-70
2022/06/18 08:24:30;;;;;;;8.68;2.55;;;23.90;99.90;;;;;;5072669;28;20059;-70
2022/06/18 08:26:56;;;;;;;8.75;3.10;;;23.90;99.90;;;;;;5073757;28;20037;-70
2022/06/18 08:29:24;;;;;;;6.30;2.95;;;23.80;99.90;;;;;;5074236;28;20391;-70
2022/06/18 08:31:50;;;;;;;10.05;3.20;;;23.90;99.90;;;;;;5073961;28;20051;-70
2022/06/18 08:34:16;;;;;;;13.43;3.00;;;23.90;99.90;;;;;;5073733;28;20488;-71
2022/06/18 08:36:43;;;;;;;6.72;2.95;;;23.90;99.90;;;;;;5073792;28;20048;-70
2022/06/18 08:39:09;;;;;;;7.95;3.03;;;24.20;99.90;;;;;;5073875;28;20105;-71
2022/06/18 08:41:49;;;;;;;7.45;2.55;;;24.40;99.90;;;;;;5074058;28;20407;-71
2022/06/18 08:44:29;;;;;;;9.40;2.80;;;24.40;99.90;;;;;;5075093;28;20045;-70
2022/06/18 08:47:33;;;;;;;9.25;3.10;;;24.50;99.90;;;;;;5074670;28;20044;-71
2022/06/18 08:50:02;;;;;;;9.32;2.20;;;24.50;99.90;;;;;;5073914;28;20531;-71
2022/06/18 08:52:55;;;;;;;7.45;2.00;;;24.30;99.90;;;;;;5075215;28;20514;-69
2022/06/18 08:55:41;;;;;;;6.03;1.95;;;24.60;99.90;;;;;;5074579;28;20108;-68
2022/06/18 08:58:12;;;;;;;6.82;2.03;;;25.00;99.90;;;;;;5073270;28;20466;-83
2022/06/18 09:00:44;;;;;;;4.50;1.70;;;25.00;99.90;;;;;;5073820;28;20106;-81
2022/06/18 09:03:42;;;;;;;6.78;1.80;;;24.30;99.90;;;;;;5073876;28;20048;-82
2022/06/18 09:06:26;;;;;;;6.38;1.73;;;24.20;99.90;;;;;;5073409;28;20135;-83
2022/06/18 09:08:54;;;;;;;9.32;1.50;;;24.00;99.90;;;;;;5073512;28;20056;-83
2022/06/18 09:11:34;;;;;;;9.45;1.73;;;23.90;99.90;;;;;;5073311;28;20087;-83
2022/06/18 09:14:14;;;;;;;3.88;1.55;;;23.80;99.90;;;;;;5073591;28;20052;-87
2022/06/18 09:16:48;;;;;;;3.20;1.23;;;23.60;99.90;;;;;;5057431;28;20449;-88
2022/06/18 09:19:19;;;;;;;5.05;1.50;;;23.60;99.90;;;;;;5073693;28;20054;-87
2022/06/18 09:22:01;;;;;;;3.80;1.77;;;23.60;99.90;;;;;;5056654;28;20078;-69
2022/06/18 09:24:47;;;;;;;3.85;1.45;;;23.60;99.90;;;;;;5073848;28;20041;-67
2022/06/18 09:27:25;;;;;;;6.22;1.25;;;23.90;99.90;;;;;;5062696;28;20040;-70
2022/06/18 09:30:09;;;;;;;3.65;0.98;;;24.10;99.90;;;;;;5067445;28;20058;-69
2022/06/18 09:32:48;;;;;;;4.65;0.90;;;24.50;99.90;;;;;;5070982;28;20048;-69
2022/06/18 09:35:20;;;;;;;2.88;0.88;;;24.70;99.90;;;;;;5054052;28;20052;-70
2022/06/18 09:38:00;;;;;;;2.63;0.80;;;24.80;99.90;;;;;;5056698;28;20060;-71
2022/06/18 09:40:50;;;;;;;8.18;1.15;;;24.90;99.90;;;;;;5073626;28;20056;-71
2022/06/18 09:43:44;;;;;;;5.25;1.00;;;24.90;99.90;;;;;;5073764;28;20072;-71
2022/06/18 09:46:19;;;;;;;2.78;1.10;;;25.00;99.90;;;;;;5059061;28;20048;-72
2022/06/18 09:48:45;;;;;;;5.25;1.20;;;25.20;99.90;;;;;;5053960;28;20049;-71
2022/06/18 09:51:23;;;;;;;4.85;1.20;;;25.00;99.90;;;;;;5053613;28;20099;-71
2022/06/18 09:53:50;;;;;;;3.83;0.88;;;25.00;99.90;;;;;;5054300;28;20049;-71
2022/06/18 09:56:24;;;;;;;4.57;1.00;;;25.20;99.90;;;;;;5053310;28;20041;-73
2022/06/18 09:58:58;;;;;;;2.67;0.88;;;25.60;99.90;;;;;;5053775;28;20045;-75
2022/06/18 10:01:52;;;;;;;2.80;1.00;;;25.80;99.90;;;;;;5053833;28;20071;-74
2022/06/18 10:07:22;;;;;;;4.22;1.30;;;26.30;99.90;;;;;;5052060;28;20103;-72
2022/06/18 10:10:09;;;;;;;3.63;1.33;;;25.90;99.90;;;;;;5052580;28;20051;-71
2022/06/18 10:12:38;;;;;;;3.10;1.05;;;25.90;99.90;;;;;;5053854;28;20155;-71
2022/06/18 10:15:08;;;;;;;5.38;1.13;;;26.10;99.90;;;;;;5062776;28;20048;-70
2022/06/18 10:17:52;;;;;;;3.03;1.02;;;26.20;99.90;;;;;;5072464;28;20052;-71
2022/06/18 10:20:36;;;;;;;3.65;1.27;;;26.20;99.90;;;;;;5071053;28;20471;-70
2022/06/18 10:23:21;;;;;;;4.65;1.00;;;26.00;99.90;;;;;;5068616;28;20048;-71
2022/06/18 10:26:02;;;;;;;3.60;0.90;;;26.20;99.90;;;;;;5077631;28;20434;-73
2022/06/18 10:28:49;;;;;;;5.97;1.52;;;26.00;99.90;;;;;;5066082;28;20102;-69
2022/06/18 10:31:23;;;;;;;2.83;1.02;;;26.40;99.90;;;;;;5069291;28;20533;-67
2022/06/18 10:34:11;;;;;;;2.78;1.00;;;26.80;99.90;;;;;;5070973;28;20079;-68
2022/06/18 10:37:14;;;;;;;4.38;1.05;;;26.80;99.90;;;;;;5071623;28;20545;-68
2022/06/18 10:39:52;;;;;;;2.15;0.93;;;26.60;99.90;;;;;;5073477;28;20047;-70
2022/06/18 10:42:34;;;;;;;2.70;1.00;;;26.40;99.90;;;;;;5072532;28;20444;-70
2022/06/18 10:45:33;;;;;;;4.22;0.98;;;26.40;99.90;;;;;;5073233;28;20126;-70
2022/06/18 10:47:59;;;;;;;4.38;0.93;;;26.70;99.90;;;;;;5073495;28;20120;-67
2022/06/18 10:50:25;;;;;;;2.83;1.05;;;26.80;99.90;;;;;;5076320;28;20601;-67
2022/06/18 10:52:58;;;;;;;6.18;1.02;;;26.80;99.90;;;;;;5076182;28;20047;-67
2022/06/18 10:55:24;;;;;;;2.17;0.93;;;27.10;99.90;;;;;;5076675;28;20044;-68
2022/06/18 10:57:50;;;;;;;4.63;1.10;;;27.00;99.90;;;;;;5077139;28;20067;-68
2022/06/18 11:00:23;;;;;;;5.47;1.13;;;26.80;99.90;;;;;;5076950;28;20051;-68
2022/06/18 11:03:00;;;;;;;1.95;0.77;;;26.80;99.90;;;;;;5076901;28;20102;-68
2022/06/18 11:05:43;;;;;;;4.70;0.80;;;26.70;99.90;;;;;;5077041;28;20056;-69
2022/06/18 11:08:22;;;;;;;2.78;0.73;;;26.60;99.90;;;;;;5076813;28;20036;-76
2022/06/18 11:11:02;;;;;;;1.60;0.90;;;26.40;99.90;;;;;;5076051;28;20476;-76
2022/06/18 11:13:35;;;;;;;7.22;1.10;;;26.60;99.90;;;;;;5059088;28;20396;-76
2022/06/18 11:16:16;;;;;;;4.25;0.88;;;26.70;99.90;;;;;;5076495;28;20040;-77
2022/06/18 11:19:03;;;;;;;1.83;0.50;;;27.00;99.90;;;;;;5076032;28;20049;-76
2022/06/18 11:21:31;;;;;;;2.03;0.63;;;27.50;99.90;;;;;;5075527;28;20432;-76
2022/06/18 11:24:01;;;;;;;1.58;0.70;;;27.50;99.90;;;;;;5075704;28;20045;-75
2022/06/18 11:26:29;;;;;;;3.83;0.77;;;27.50;99.90;;;;;;5075446;28;20056;-76
2022/06/18 11:29:00;;;;;;;3.15;0.70;;;27.40;99.90;;;;;;5075655;28;20403;-76
2022/06/18 11:31:33;;;;;;;4.28;0.82;;;27.40;99.90;;;;;;5058965;28;20527;-76
2022/06/18 11:34:02;;;;;;;2.67;0.50;;;27.50;99.90;;;;;;5075768;28;20057;-76
2022/06/18 11:36:46;;;;;;;1.52;0.70;;;27.70;99.90;;;;;;5075548;28;20063;-76
2022/06/18 11:39:33;;;;;;;4.45;0.77;;;28.20;99.90;;;;;;5076559;28;20057;-76
2022/06/18 11:42:09;;;;;;;2.53;0.57;;;28.30;99.90;;;;;;5076266;28;20045;-76
2022/06/18 11:44:41;;;;;;;4.20;0.68;;;28.20;99.90;;;;;;5076552;28;20074;-76
2022/06/18 11:47:20;;;;;;;2.53;0.60;;;28.30;99.90;;;;;;5075039;28;20083;-75
2022/06/18 11:49:57;;;;;;;2.78;0.47;;;28.20;99.90;;;;;;5076470;28;20044;-76
2022/06/18 11:52:34;;;;;;;1.98;0.50;;;28.10;99.90;;;;;;5075024;28;20487;-76
2022/06/18 11:55:24;;;;;;;2.03;0.73;;;28.40;99.90;;;;;;5074809;28;20051;-75
2022/06/18 11:57:56;;;;;;;1.05;0.40;;;28.30;99.90;;;;;;5075145;28;20391;-76
2022/06/18 12:00:26;;;;;;;1.73;0.50;;;28.20;99.90;;;;;;5074773;28;20502;-75
2022/06/18 12:02:58;;;;;;;2.25;0.55;;;28.40;99.90;;;;;;5075001;28;20502;-76
2022/06/18 12:05:35;;;;;;;3.67;0.60;;;28.50;99.90;;;;;;5074815;28;20048;-76
2022/06/18 12:08:03;;;;;;;4.82;0.88;;;28.40;99.90;;;;;;5074572;28;20040;-76
2022/06/18 12:10:38;;;;;;;3.08;0.63;;;28.30;99.90;;;;;;5074943;28;20060;-76
2022/06/18 12:13:11;;;;;;;4.25;1.02;;;28.60;99.90;;;;;;5075142;28;20044;-76
2022/06/18 12:15:47;;;;;;;5.43;1.23;;;28.70;99.90;;;;;;5074633;28;20083;-76
2022/06/18 12:18:38;;;;;;;4.40;0.95;;;28.60;99.90;;;;;;5075440;28;20044;-76
2022/06/18 12:21:07;;;;;;;7.10;1.52;;;28.90;99.90;;;;;;5074769;28;20085;-76
2022/06/18 12:23:59;;;;;;;5.45;1.08;;;28.90;99.90;;;;;;5074590;28;20048;-75
2022/06/18 12:26:33;;;;;;;3.58;0.90;;;28.80;99.90;;;;;;5074217;28;20049;-76
2022/06/18 12:29:27;;;;;;;5.85;1.13;;;28.50;99.90;;;;;;5075648;28;20121;-75
2022/06/18 12:32:06;;;;;;;3.65;0.95;;;28.50;99.90;;;;;;5057807;28;20053;-76
2022/06/18 12:35:11;;;;;;;4.75;1.05;;;28.80;99.90;;;;;;5074446;28;20056;-76
2022/06/18 12:38:02;;;;;;;4.63;1.10;;;28.40;99.90;;;;;;5074813;28;20087;-76
2022/06/18 12:41:07;;;;;;;3.55;0.90;;;28.50;99.90;;;;;;5074386;28;20044;-76
2022/06/18 12:43:59;;;;;;;6.38;1.30;;;28.80;99.90;;;;;;5053511;28;20056;-76
2022/06/18 12:46:54;;;;;;;7.32;1.20;;;28.90;99.90;;;;;;5073390;28;20056;-76
2022/06/18 12:49:40;;;;;;;5.43;0.90;;;29.10;99.90;;;;;;5068248;28;20048;-75
2022/06/18 12:52:30;;;;;;;5.60;1.17;;;29.00;99.90;;;;;;5057219;28;20053;-76
2022/06/18 12:55:14;;;;;;;4.05;1.08;;;29.10;99.90;;;;;;5074708;28;20123;-76
2022/06/18 12:58:02;;;;;;;3.85;0.88;;;28.90;99.90;;;;;;5073800;28;20098;-76
2022/06/18 13:00:38;;;;;;;4.22;1.10;;;28.90;99.90;;;;;;5073715;28;20127;-81
2022/06/18 13:03:32;;;;;;;5.50;1.25;;;28.40;99.90;;;;;;5073970;28;20479;-76
2022/06/18 13:06:26;;;;;;;7.45;1.20;;;28.50;99.90;;;;;;5074550;28;20502;-76
2022/06/18 13:09:19;;;;;;;6.28;1.48;;;28.60;99.90;;;;;;5070132;28;20067;-76
2022/06/18 13:12:02;;;;;;;5.55;1.70;;;28.60;99.90;;;;;;5073651;28;20055;-76
2022/06/18 13:14:49;;;;;;;11.30;1.38;;;28.50;99.90;;;;;;5074078;28;20051;-76
2022/06/18 13:17:17;;;;;;;7.40;1.50;;;27.90;99.60;;;;;;5074637;28;20048;-76
2022/06/18 13:19:49;;;;;;;7.93;1.35;;;27.50;99.80;;;;;;5073339;28;20131;-76
2022/06/18 13:22:15;;;;;;;7.95;1.63;;;27.30;99.80;;;;;;5073304;28;20048;-76